NEWTON-CITY-COUNTY (EWK) CLASS E
     UNICOM 123.00    AWOS 123.875 (316-283-8789)   FBO 316-254-6084
RWY 17-35: 7003' x 100' (CONCRETE)
     RWY 17: MALSR. VASI
     RWY 35: REIL. VASI
RWY 08-26: 3501' x 60' (ASPHALT)
     RWY 08: REIL. PAPI
     RWY 26: REIL. PAPI

 

Available data for KEWK from the past 2 hours
NEWTON, KS
Metar
KEWK 172256Z AUTO 17015KT 10SM CLR 22/05 A2981 RMK AO2 SLP088 T02170050

22:56 UTC

Wind: 170° 15kt

Visibility: 10 SM

Sky:

Temp: 22 deg C / 71.6 deg F

Dewpoint: 5 deg C / 41 deg F

Pressure: 29.81 inHg

 

Enter your text here...